Shanghai Dawn — 3FMN2 — position and weather

sailwx.info

Track history (hours):
 
Tides and Currents Weather Stations Pressure Air Temp Water Temp Dewpoint Dewpoint Depression Visibility Wind Speed Wind Dir Waves Ship Positions

Shanghai Dawn

Last reported at 2018-Aug-14 07:00 UTC. Time now 2018-Aug-14 07:03 UTC.
Position N 58°52' W 003°06'.

Length 246 m; draft 8 m.

Type: Tanker. MMSI: 356075000.

Date/timePositionNaut miles runAvg speedWind from/ knotsBaromVisibWave heightAir tempDewpointWater temp
2018-Aug-14 07:00N 58°52' W 003°06'2 4.2
2018-Aug-14 06:30N 58°50' W 003°03'5 9.7
2018-Aug-14 06:01N 58°46' W 003°06'3 5.2
2018-Aug-14 05:30N 58°43' W 003°07'5 9.3
2018-Aug-14 05:00N 58°40' W 002°60'4 7.9
2018-Aug-14 04:30N 58°37' W 002°55'3 5.7
2018-Aug-14 04:00N 58°35' W 002°51'4 8.1
2018-Aug-14 03:30N 58°32' W 002°46'3 5.2
2018-Aug-14 02:58N 58°32' W 002°41'4 6.1
2018-Aug-14 02:24N 58°31' W 002°34'2 4.7
2018-Aug-14 01:57N 58°32' W 002°30'1 1.2
2018-Aug-14 01:29N 58°32' W 002°29'1 1.1
2018-Aug-14 00:55N 58°32' W 002°28'0 1.1
2018-Aug-14 00:30N 58°32' W 002°27'1 1.2
2018-Aug-14 00:00N 58°33' W 002°27'1 1.4
2018-Aug-13 23:27N 58°33' W 002°26'1 2.1
2018-Aug-13 22:59N 58°34' W 002°25'3 5.0
2018-Aug-13 22:22N 58°37' W 002°24'6 3.8
2018-Aug-13 20:39N 58°44' W 002°21'0 1.3
2018-Aug-13 20:31N 58°43' W 002°21'1 1.5
2018-Aug-13 19:41N 58°42' W 002°22'2 1.9
2018-Aug-13 18:53N 58°41' W 002°22'1 2.0
2018-Aug-13 18:30N 58°40' W 002°22'1 2.0
2018-Aug-13 17:59N 58°39' W 002°21'2 1.9
2018-Aug-13 17:09N 58°37' W 002°20'1 1.7
2018-Aug-13 16:21N 58°36' W 002°20'1 3.1
2018-Aug-13 15:57N 58°36' W 002°22'  
2018-Aug-09 11:10N 53°06' E 003°26'610.2
2018-Aug-09 10:36N 53°00' E 003°23'3 9.9
2018-Aug-09 10:17N 52°57' E 003°22'4 9.6
2018-Aug-09 09:52N 52°53' E 003°19'10 9.4
2018-Aug-09 08:50N 52°45' E 003°12'3 9.0
2018-Aug-09 08:29N 52°42' E 003°09'4 8.9
2018-Aug-09 08:00N 52°38' E 003°06'5 8.6
2018-Aug-09 07:28N 52°34' E 003°03'4 8.2
2018-Aug-09 07:00N 52°30' E 003°03'5 8.8
2018-Aug-09 06:29N 52°26' E 003°06'4 8.8
2018-Aug-09 06:00N 52°22' E 003°08'4 8.6
2018-Aug-09 05:30N 52°19' E 003°12'5 9.2
2018-Aug-09 05:00N 52°15' E 003°17'5 9.1
2018-Aug-09 04:30N 52°12' E 003°23'4 9.0
2018-Aug-09 04:00N 52°10' E 003°29'4 7.6
2018-Aug-09 03:30N 52°08' E 003°35'1 1.9
2018-Aug-09 03:00N 52°09' E 003°36'0 0.1
2018-Aug-09 02:30N 52°09' E 003°36'0 0.0
2018-Aug-09 01:57N 52°09' E 003°36'0 0.0
2018-Aug-09 01:30N 52°09' E 003°36'0 0.0
2018-Aug-09 01:00N 52°09' E 003°36'0 0.0
2018-Aug-09 00:27N 52°09' E 003°36'0 0.0
2018-Aug-09 00:00N 52°09' E 003°36'0 0.0
2018-Aug-08 23:27N 52°09' E 003°36'0 0.0
2018-Aug-08 23:00N 52°09' E 003°36'0 0.1
2018-Aug-08 22:30N 52°09' E 003°36'0 0.0
2018-Aug-08 22:00N 52°09' E 003°36'0 0.0
2018-Aug-08 21:30N 52°09' E 003°36'0 0.0
2018-Aug-08 21:00N 52°09' E 003°36'0 0.1
2018-Aug-08 20:30N 52°09' E 003°36'0 0.0
2018-Aug-08 19:58N 52°09' E 003°36'0 0.1
2018-Aug-08 19:30N 52°09' E 003°36'0 0.1
2018-Aug-08 19:00N 52°09' E 003°36'0 0.0
2018-Aug-08 18:30N 52°08' E 003°36'0 0.1
2018-Aug-08 18:00N 52°08' E 003°36'0 0.0
2018-Aug-08 17:30N 52°08' E 003°36'0 0.1
2018-Aug-08 16:18N 52°09' E 003°36'0 0.1
2018-Aug-08 16:00N 52°09' E 003°36'0 0.1
2018-Aug-08 15:30N 52°09' E 003°36'0 0.0
2018-Aug-08 15:00N 52°09' E 003°36'0 0.0
2018-Aug-08 14:30N 52°09' E 003°36'0 0.0
2018-Aug-08 14:00N 52°09' E 003°36'0 0.0
2018-Aug-08 13:24N 52°09' E 003°36'0 0.0
2018-Aug-08 13:00N 52°09' E 003°36'0 0.0
2018-Aug-08 12:30N 52°09' E 003°36'0 0.0
2018-Aug-08 11:58N 52°09' E 003°36'0 0.0
2018-Aug-08 11:28N 52°09' E 003°36'0 0.0
2018-Aug-08 10:58N 52°09' E 003°36'0 0.0
2018-Aug-08 10:28N 52°09' E 003°36'0 0.0
2018-Aug-08 09:58N 52°09' E 003°36'0 0.1
2018-Aug-08 09:28N 52°09' E 003°36'0 0.0
2018-Aug-08 08:55N 52°09' E 003°36'0 0.0
2018-Aug-08 08:28N 52°09' E 003°36'0 0.1
2018-Aug-08 07:58N 52°09' E 003°36'0 0.0
2018-Aug-08 07:28N 52°09' E 003°36'0 0.1
2018-Aug-08 06:58N 52°09' E 003°36'0 0.3
2018-Aug-08 06:25N 52°09' E 003°36'0 0.1
2018-Aug-08 05:58N 52°09' E 003°36'0 0.0
2018-Aug-08 05:28N 52°09' E 003°36'0 0.1
2018-Aug-08 05:01N 52°09' E 003°36'0 0.1
2018-Aug-08 04:28N 52°09' E 003°36'0 0.0
2018-Aug-08 03:58N 52°09' E 003°36'0 0.0
2018-Aug-08 03:28N 52°09' E 003°36'0 0.2
2018-Aug-08 02:52N 52°09' E 003°36'0 0.0
2018-Aug-08 02:28N 52°09' E 003°36'0 0.0
2018-Aug-08 01:58N 52°09' E 003°36'0 0.1
2018-Aug-08 01:28N 52°09' E 003°36'0 0.1
2018-Aug-08 00:58N 52°09' E 003°36'0 0.0
2018-Aug-08 00:28N 52°09' E 003°36'0 0.1
2018-Aug-07 23:58N 52°09' E 003°36'0 0.1
2018-Aug-07 23:28N 52°09' E 003°36'0 0.2
2018-Aug-07 22:58N 52°09' E 003°36'0 0.1
2018-Aug-07 21:58N 52°08' E 003°36'0 0.0
2018-Aug-07 21:28N 52°09' E 003°36'0 0.0
2018-Aug-07 20:58N 52°08' E 003°36'0 0.2
2018-Aug-07 20:29N 52°09' E 003°36'0 0.4
2018-Aug-07 19:59N 52°09' E 003°36'0 0.2
2018-Aug-07 19:29N 52°08' E 003°36'0 0.1
2018-Aug-07 18:59N 52°08' E 003°36'0 0.0
2018-Aug-07 18:29N 52°08' E 003°36'0 0.0
2018-Aug-07 17:59N 52°08' E 003°36'0 0.0
2018-Aug-07 17:29N 52°08' E 003°36'0 0.0
2018-Aug-07 16:56N 52°08' E 003°36'0 0.0
2018-Aug-07 16:29N 52°08' E 003°36'0 0.0
2018-Aug-07 15:59N 52°08' E 003°36'0 0.0
2018-Aug-07 15:26N 52°08' E 003°36'0 0.0
2018-Aug-07 14:59N 52°08' E 003°36'0 0.0
2018-Aug-07 14:26N 52°08' E 003°36'0 0.0
2018-Aug-07 13:59N 52°08' E 003°36'0 0.2
2018-Aug-07 13:26N 52°09' E 003°36'0 0.1
2018-Aug-07 12:56N 52°09' E 003°36'0 0.1
2018-Aug-07 12:29N 52°09' E 003°36'0 0.0
2018-Aug-07 11:59N 52°09' E 003°36'0 0.0
2018-Aug-07 11:29N 52°09' E 003°36'0 0.0
2018-Aug-07 10:59N 52°09' E 003°36'0 0.0
2018-Aug-07 10:29N 52°09' E 003°36'0 0.0
2018-Aug-07 09:59N 52°09' E 003°36'0 0.0
2018-Aug-07 09:29N 52°09' E 003°36'0 0.0
2018-Aug-07 08:59N 52°09' E 003°36'0 0.0
2018-Aug-07 08:29N 52°09' E 003°36'0 0.1
2018-Aug-07 07:59N 52°09' E 003°36'0 0.3
2018-Aug-07 07:29N 52°09' E 003°36'0 0.2
2018-Aug-07 06:59N 52°08' E 003°36'0 0.1
2018-Aug-07 06:29N 52°08' E 003°36'0 0.0
2018-Aug-07 05:59N 52°08' E 003°36'0 0.0
2018-Aug-07 05:29N 52°08' E 003°36'0 0.0
2018-Aug-07 04:59N 52°08' E 003°36'0 0.0
2018-Aug-07 04:29N 52°08' E 003°36'0 0.0
2018-Aug-07 03:59N 52°08' E 003°36'0 0.0
2018-Aug-07 03:29N 52°08' E 003°36'0 0.0
2018-Aug-07 02:59N 52°08' E 003°36'0 0.0
2018-Aug-07 02:29N 52°08' E 003°36'0 0.1
2018-Aug-07 01:59N 52°08' E 003°36'0 0.0
2018-Aug-07 01:29N 52°08' E 003°36'0 0.1
2018-Aug-07 00:56N 52°08' E 003°36'0 0.2
2018-Aug-07 00:29N 52°09' E 003°36'0 0.1
2018-Aug-06 23:59N 52°09' E 003°36'0 0.0
2018-Aug-06 23:29N 52°09' E 003°36'0 0.0
2018-Aug-06 22:56N 52°09' E 003°36'0 0.0
2018-Aug-06 22:29N 52°09' E 003°36'0 0.0
2018-Aug-06 21:59N 52°09' E 003°36'0 0.0
2018-Aug-06 21:29N 52°09' E 003°36'0 0.0
2018-Aug-06 20:59N 52°09' E 003°36'0 0.0
2018-Aug-06 20:29N 52°09' E 003°36'0 0.0
2018-Aug-06 19:59N 52°09' E 003°36'0 0.3
2018-Aug-06 19:29N 52°08' E 003°36'0 0.3
2018-Aug-06 18:59N 52°08' E 003°36'0 0.0
2018-Aug-06 18:29N 52°08' E 003°36'0 0.1
2018-Aug-06 17:59N 52°08' E 003°36'1 1.3
2018-Aug-06 17:30N 52°08' E 003°36'3 6.4
2018-Aug-06 17:00N 52°05' E 003°40'1010.4
2018-Aug-06 16:00N 52°02' E 003°56'611.1
2018-Aug-06 15:30N 51°59' E 004°04'1 2.5
2018-Aug-06 15:00N 51°58' E 004°04'0 0.0
2018-Aug-06 14:29N 51°58' E 004°04'0 0.0
2018-Aug-06 13:59N 51°58' E 004°04'0 0.0
2018-Aug-06 13:29N 51°58' E 004°04'0 0.0
2018-Aug-06 12:56N 51°58' E 004°04'0 0.0
2018-Aug-06 12:29N 51°58' E 004°04'0 0.0
2018-Aug-06 11:59N 51°58' E 004°04'0 0.0
2018-Aug-06 11:29N 51°58' E 004°04'0 0.0
2018-Aug-06 10:59N 51°58' E 004°04'0 0.0
2018-Aug-06 10:26N 51°58' E 004°04'0 0.0
2018-Aug-06 09:59N 51°58' E 004°04'0 0.0
2018-Aug-06 09:23N 51°58' E 004°04'0 0.0
2018-Aug-06 08:59N 51°58' E 004°04'0 0.0
2018-Aug-06 08:29N 51°58' E 004°04'0 0.0
2018-Aug-06 07:56N 51°58' E 004°04'0 0.0
2018-Aug-06 07:29N 51°58' E 004°04'0 0.0
2018-Aug-06 06:56N 51°58' E 004°04'0 0.0
2018-Aug-06 06:29N 51°58' E 004°04'0 0.0
2018-Aug-06 05:59N 51°58' E 004°04'0 0.0
2018-Aug-06 05:29N 51°58' E 004°04'0 0.0
2018-Aug-06 04:56N 51°58' E 004°04'0 0.0
2018-Aug-06 04:29N 51°58' E 004°04'0 0.0
2018-Aug-06 03:59N 51°58' E 004°04'0 0.0
2018-Aug-06 03:29N 51°58' E 004°04'0 0.0
2018-Aug-06 02:59N 51°58' E 004°04'0 0.0
2018-Aug-06 02:29N 51°58' E 004°04'0 0.0
2018-Aug-06 01:53N 51°58' E 004°04'0 0.0
2018-Aug-06 01:29N 51°58' E 004°04'0 0.0
2018-Aug-06 00:53N 51°58' E 004°04'0 0.0
2018-Aug-06 00:26N 51°58' E 004°04'0 0.0
2018-Aug-05 23:59N 51°58' E 004°04'0 0.0
2018-Aug-05 23:29N 51°58' E 004°04'0 0.0
2018-Aug-05 22:59N 51°58' E 004°04'0 0.0
2018-Aug-05 22:29N 51°58' E 004°04'0 0.0
2018-Aug-05 21:59N 51°58' E 004°04'0 0.0
2018-Aug-05 21:29N 51°58' E 004°04'0 0.0
2018-Aug-05 20:59N 51°58' E 004°04'0 0.0
2018-Aug-05 20:29N 51°58' E 004°04'0 0.0
2018-Aug-05 19:53N 51°58' E 004°04'0 0.0
2018-Aug-05 19:29N 51°58' E 004°04'0 0.0
2018-Aug-05 18:59N 51°58' E 004°04'0 0.0
2018-Aug-05 18:30N 51°58' E 004°04'0 0.6
2018-Aug-05 18:00N 51°58' E 004°05'2 3.1
2018-Aug-05 17:30N 51°58' E 004°07'2 4.7
2018-Aug-05 17:00N 51°57' E 004°10'2 3.7
2018-Aug-05 16:30N 51°55' E 004°12'0 0.1
2018-Aug-05 15:58N 51°55' E 004°12'0 0.0
2018-Aug-05 15:28N 51°55' E 004°12'0 0.0
2018-Aug-05 14:58N 51°55' E 004°12'0 0.0
2018-Aug-05 14:28N 51°55' E 004°12'0 0.0
2018-Aug-05 13:22N 51°55' E 004°12'0 0.0
2018-Aug-05 12:55N 51°55' E 004°12'0 0.0
2018-Aug-05 12:28N 51°55' E 004°12'0 0.0
2018-Aug-05 11:58N 51°55' E 004°12'0 0.0
2018-Aug-05 11:28N 51°55' E 004°12'0 0.0
2018-Aug-05 10:58N 51°55' E 004°12'0 0.0
2018-Aug-05 10:28N 51°55' E 004°12'0 0.0
2018-Aug-05 09:58N 51°55' E 004°12'0 0.0
2018-Aug-05 09:28N 51°55' E 004°12'0 0.0
2018-Aug-05 08:58N 51°55' E 004°12'0 0.0
2018-Aug-05 08:28N 51°55' E 004°12'0 0.0
2018-Aug-05 07:58N 51°55' E 004°12'0 0.0
2018-Aug-05 07:28N 51°55' E 004°12'0 0.0
2018-Aug-05 06:58N 51°55' E 004°12'0 0.0
2018-Aug-05 06:25N 51°55' E 004°12'0 0.0
2018-Aug-05 05:58N 51°55' E 004°12'0 0.0
2018-Aug-05 05:19N 51°55' E 004°12'0 0.0
2018-Aug-05 04:49N 51°55' E 004°12'0 0.0
2018-Aug-05 04:28N 51°55' E 004°12'0 0.0
2018-Aug-05 03:58N 51°55' E 004°12'0 0.0
2018-Aug-05 03:28N 51°55' E 004°12'0 0.0
2018-Aug-05 02:58N 51°55' E 004°12'0 0.0
2018-Aug-05 02:28N 51°55' E 004°12'0 0.0
2018-Aug-05 01:58N 51°55' E 004°12'0 0.1
2018-Aug-05 01:30N 51°55' E 004°12'1 2.7
2018-Aug-05 01:00N 51°56' E 004°11'3 6.7
2018-Aug-05 00:30N 51°58' E 004°06'4 8.8
2018-Aug-05 00:00N 52°00' E 003°60'5 9.3
2018-Aug-04 23:30N 52°02' E 003°53'4 8.5
2018-Aug-04 23:00N 52°01' E 003°46'3 5.2
2018-Aug-04 22:30N 52°03' E 003°42'3 6.3
2018-Aug-04 22:00N 52°05' E 003°38'5 9.1
2018-Aug-04 21:29N 52°07' E 003°32'511.0
2018-Aug-04 21:00N 52°08' E 003°23'611.1
2018-Aug-04 20:26N 52°10' E 003°14'511.4
2018-Aug-04 20:00N 52°14' E 003°08'611.3
2018-Aug-04 19:29N 52°19' E 003°03'611.5
2018-Aug-04 19:00N 52°24' E 002°59'610.7
2018-Aug-04 18:24N 52°30' E 002°56'511.2
2018-Aug-04 17:56N 52°34' E 002°59'1911.8
2018-Aug-04 16:21N 52°51' E 003°13'412.4
2018-Aug-04 16:00N 52°55' E 003°15'612.6
2018-Aug-04 15:30N 53°01' E 003°19'  
Track history (hours):
 
Tides and Currents Weather Stations Pressure Air Temp Water Temp Dewpoint Dewpoint Depression Visibility Wind Speed Wind Dir Waves Ship Positions

Shanghai Dawn

Last reported at 2018-Aug-14 07:00 UTC. Time now 2018-Aug-14 07:03 UTC.
Position N 58°52' W 003°06'.

Length 246 m; draft 8 m.

Type: Tanker. MMSI: 356075000.

Date/timePositionNaut miles runAvg speedWind from/ knotsBaromVisibWave heightAir tempDewpointWater temp
2018-Aug-14 07:00N 58°52' W 003°06'2 4.2
2018-Aug-14 06:30N 58°50' W 003°03'5 9.7
2018-Aug-14 06:01N 58°46' W 003°06'3 5.2
2018-Aug-14 05:30N 58°43' W 003°07'5 9.3
2018-Aug-14 05:00N 58°40' W 002°60'4 7.9
2018-Aug-14 04:30N 58°37' W 002°55'3 5.7
2018-Aug-14 04:00N 58°35' W 002°51'4 8.1
2018-Aug-14 03:30N 58°32' W 002°46'3 5.2
2018-Aug-14 02:58N 58°32' W 002°41'4 6.1
2018-Aug-14 02:24N 58°31' W 002°34'2 4.7
2018-Aug-14 01:57N 58°32' W 002°30'1 1.2
2018-Aug-14 01:29N 58°32' W 002°29'1 1.1
2018-Aug-14 00:55N 58°32' W 002°28'0 1.1
2018-Aug-14 00:30N 58°32' W 002°27'1 1.2
2018-Aug-14 00:00N 58°33' W 002°27'1 1.4
2018-Aug-13 23:27N 58°33' W 002°26'1 2.1
2018-Aug-13 22:59N 58°34' W 002°25'3 5.0
2018-Aug-13 22:22N 58°37' W 002°24'6 3.8
2018-Aug-13 20:39N 58°44' W 002°21'0 1.3
2018-Aug-13 20:31N 58°43' W 002°21'1 1.5
2018-Aug-13 19:41N 58°42' W 002°22'2 1.9
2018-Aug-13 18:53N 58°41' W 002°22'1 2.0
2018-Aug-13 18:30N 58°40' W 002°22'1 2.0
2018-Aug-13 17:59N 58°39' W 002°21'2 1.9
2018-Aug-13 17:09N 58°37' W 002°20'1 1.7
2018-Aug-13 16:21N 58°36' W 002°20'1 3.1
2018-Aug-13 15:57N 58°36' W 002°22'  
2018-Aug-09 11:10N 53°06' E 003°26'610.2
2018-Aug-09 10:36N 53°00' E 003°23'3 9.9
2018-Aug-09 10:17N 52°57' E 003°22'4 9.6
2018-Aug-09 09:52N 52°53' E 003°19'10 9.4
2018-Aug-09 08:50N 52°45' E 003°12'3 9.0
2018-Aug-09 08:29N 52°42' E 003°09'4 8.9
2018-Aug-09 08:00N 52°38' E 003°06'5 8.6
2018-Aug-09 07:28N 52°34' E 003°03'4 8.2
2018-Aug-09 07:00N 52°30' E 003°03'5 8.8
2018-Aug-09 06:29N 52°26' E 003°06'4 8.8
2018-Aug-09 06:00N 52°22' E 003°08'4 8.6
2018-Aug-09 05:30N 52°19' E 003°12'5 9.2
2018-Aug-09 05:00N 52°15' E 003°17'5 9.1
2018-Aug-09 04:30N 52°12' E 003°23'4 9.0
2018-Aug-09 04:00N 52°10' E 003°29'4 7.6
2018-Aug-09 03:30N 52°08' E 003°35'1 1.9
2018-Aug-09 03:00N 52°09' E 003°36'0 0.1
2018-Aug-09 02:30N 52°09' E 003°36'0 0.0
2018-Aug-09 01:57N 52°09' E 003°36'0 0.0
2018-Aug-09 01:30N 52°09' E 003°36'0 0.0
2018-Aug-09 01:00N 52°09' E 003°36'0 0.0
2018-Aug-09 00:27N 52°09' E 003°36'0 0.0
2018-Aug-09 00:00N 52°09' E 003°36'0 0.0
2018-Aug-08 23:27N 52°09' E 003°36'0 0.0
2018-Aug-08 23:00N 52°09' E 003°36'0 0.1
2018-Aug-08 22:30N 52°09' E 003°36'0 0.0
2018-Aug-08 22:00N 52°09' E 003°36'0 0.0
2018-Aug-08 21:30N 52°09' E 003°36'0 0.0
2018-Aug-08 21:00N 52°09' E 003°36'0 0.1
2018-Aug-08 20:30N 52°09' E 003°36'0 0.0
2018-Aug-08 19:58N 52°09' E 003°36'0 0.1
2018-Aug-08 19:30N 52°09' E 003°36'0 0.1
2018-Aug-08 19:00N 52°09' E 003°36'0 0.0
2018-Aug-08 18:30N 52°08' E 003°36'0 0.1
2018-Aug-08 18:00N 52°08' E 003°36'0 0.0
2018-Aug-08 17:30N 52°08' E 003°36'0 0.1
2018-Aug-08 16:18N 52°09' E 003°36'0 0.1
2018-Aug-08 16:00N 52°09' E 003°36'0 0.1
2018-Aug-08 15:30N 52°09' E 003°36'0 0.0
2018-Aug-08 15:00N 52°09' E 003°36'0 0.0
2018-Aug-08 14:30N 52°09' E 003°36'0 0.0
2018-Aug-08 14:00N 52°09' E 003°36'0 0.0
2018-Aug-08 13:24N 52°09' E 003°36'0 0.0
2018-Aug-08 13:00N 52°09' E 003°36'0 0.0
2018-Aug-08 12:30N 52°09' E 003°36'0 0.0
2018-Aug-08 11:58N 52°09' E 003°36'0 0.0
2018-Aug-08 11:28N 52°09' E 003°36'0 0.0
2018-Aug-08 10:58N 52°09' E 003°36'0 0.0
2018-Aug-08 10:28N 52°09' E 003°36'0 0.0
2018-Aug-08 09:58N 52°09' E 003°36'0 0.1
2018-Aug-08 09:28N 52°09' E 003°36'0 0.0
2018-Aug-08 08:55N 52°09' E 003°36'0 0.0
2018-Aug-08 08:28N 52°09' E 003°36'0 0.1
2018-Aug-08 07:58N 52°09' E 003°36'0 0.0
2018-Aug-08 07:28N 52°09' E 003°36'0 0.1
2018-Aug-08 06:58N 52°09' E 003°36'0 0.3
2018-Aug-08 06:25N 52°09' E 003°36'0 0.1
2018-Aug-08 05:58N 52°09' E 003°36'0 0.0
2018-Aug-08 05:28N 52°09' E 003°36'0 0.1
2018-Aug-08 05:01N 52°09' E 003°36'0 0.1
2018-Aug-08 04:28N 52°09' E 003°36'0 0.0
2018-Aug-08 03:58N 52°09' E 003°36'0 0.0
2018-Aug-08 03:28N 52°09' E 003°36'0 0.2
2018-Aug-08 02:52N 52°09' E 003°36'0 0.0
2018-Aug-08 02:28N 52°09' E 003°36'0 0.0
2018-Aug-08 01:58N 52°09' E 003°36'0 0.1
2018-Aug-08 01:28N 52°09' E 003°36'0 0.1
2018-Aug-08 00:58N 52°09' E 003°36'0 0.0
2018-Aug-08 00:28N 52°09' E 003°36'0 0.1
2018-Aug-07 23:58N 52°09' E 003°36'0 0.1
2018-Aug-07 23:28N 52°09' E 003°36'0 0.2
2018-Aug-07 22:58N 52°09' E 003°36'0 0.1
2018-Aug-07 21:58N 52°08' E 003°36'0 0.0
2018-Aug-07 21:28N 52°09' E 003°36'0 0.0
2018-Aug-07 20:58N 52°08' E 003°36'0 0.2
2018-Aug-07 20:29N 52°09' E 003°36'0 0.4
2018-Aug-07 19:59N 52°09' E 003°36'0 0.2
2018-Aug-07 19:29N 52°08' E 003°36'0 0.1
2018-Aug-07 18:59N 52°08' E 003°36'0 0.0
2018-Aug-07 18:29N 52°08' E 003°36'0 0.0
2018-Aug-07 17:59N 52°08' E 003°36'0 0.0
2018-Aug-07 17:29N 52°08' E 003°36'0 0.0
2018-Aug-07 16:56N 52°08' E 003°36'0 0.0
2018-Aug-07 16:29N 52°08' E 003°36'0 0.0
2018-Aug-07 15:59N 52°08' E 003°36'0 0.0
2018-Aug-07 15:26N 52°08' E 003°36'0 0.0
2018-Aug-07 14:59N 52°08' E 003°36'0 0.0
2018-Aug-07 14:26N 52°08' E 003°36'0 0.0
2018-Aug-07 13:59N 52°08' E 003°36'0 0.2
2018-Aug-07 13:26N 52°09' E 003°36'0 0.1
2018-Aug-07 12:56N 52°09' E 003°36'0 0.1
2018-Aug-07 12:29N 52°09' E 003°36'0 0.0
2018-Aug-07 11:59N 52°09' E 003°36'0 0.0
2018-Aug-07 11:29N 52°09' E 003°36'0 0.0
2018-Aug-07 10:59N 52°09' E 003°36'0 0.0
2018-Aug-07 10:29N 52°09' E 003°36'0 0.0
2018-Aug-07 09:59N 52°09' E 003°36'0 0.0
2018-Aug-07 09:29N 52°09' E 003°36'0 0.0
2018-Aug-07 08:59N 52°09' E 003°36'0 0.0
2018-Aug-07 08:29N 52°09' E 003°36'0 0.1
2018-Aug-07 07:59N 52°09' E 003°36'0 0.3
2018-Aug-07 07:29N 52°09' E 003°36'0 0.2
2018-Aug-07 06:59N 52°08' E 003°36'0 0.1
2018-Aug-07 06:29N 52°08' E 003°36'0 0.0
2018-Aug-07 05:59N 52°08' E 003°36'0 0.0
2018-Aug-07 05:29N 52°08' E 003°36'0 0.0
2018-Aug-07 04:59N 52°08' E 003°36'0 0.0
2018-Aug-07 04:29N 52°08' E 003°36'0 0.0
2018-Aug-07 03:59N 52°08' E 003°36'0 0.0
2018-Aug-07 03:29N 52°08' E 003°36'0 0.0
2018-Aug-07 02:59N 52°08' E 003°36'0 0.0
2018-Aug-07 02:29N 52°08' E 003°36'0 0.1
2018-Aug-07 01:59N 52°08' E 003°36'0 0.0
2018-Aug-07 01:29N 52°08' E 003°36'0 0.1
2018-Aug-07 00:56N 52°08' E 003°36'0 0.2
2018-Aug-07 00:29N 52°09' E 003°36'0 0.1
2018-Aug-06 23:59N 52°09' E 003°36'0 0.0
2018-Aug-06 23:29N 52°09' E 003°36'0 0.0
2018-Aug-06 22:56N 52°09' E 003°36'0 0.0
2018-Aug-06 22:29N 52°09' E 003°36'0 0.0
2018-Aug-06 21:59N 52°09' E 003°36'0 0.0
2018-Aug-06 21:29N 52°09' E 003°36'0 0.0
2018-Aug-06 20:59N 52°09' E 003°36'0 0.0
2018-Aug-06 20:29N 52°09' E 003°36'0 0.0
2018-Aug-06 19:59N 52°09' E 003°36'0 0.3
2018-Aug-06 19:29N 52°08' E 003°36'0 0.3
2018-Aug-06 18:59N 52°08' E 003°36'0 0.0
2018-Aug-06 18:29N 52°08' E 003°36'0 0.1
2018-Aug-06 17:59N 52°08' E 003°36'1 1.3
2018-Aug-06 17:30N 52°08' E 003°36'3 6.4
2018-Aug-06 17:00N 52°05' E 003°40'1010.4
2018-Aug-06 16:00N 52°02' E 003°56'611.1
2018-Aug-06 15:30N 51°59' E 004°04'1 2.5
2018-Aug-06 15:00N 51°58' E 004°04'0 0.0
2018-Aug-06 14:29N 51°58' E 004°04'0 0.0
2018-Aug-06 13:59N 51°58' E 004°04'0 0.0
2018-Aug-06 13:29N 51°58' E 004°04'0 0.0
2018-Aug-06 12:56N 51°58' E 004°04'0 0.0
2018-Aug-06 12:29N 51°58' E 004°04'0 0.0
2018-Aug-06 11:59N 51°58' E 004°04'0 0.0
2018-Aug-06 11:29N 51°58' E 004°04'0 0.0
2018-Aug-06 10:59N 51°58' E 004°04'0 0.0
2018-Aug-06 10:26N 51°58' E 004°04'0 0.0
2018-Aug-06 09:59N 51°58' E 004°04'0 0.0
2018-Aug-06 09:23N 51°58' E 004°04'0 0.0
2018-Aug-06 08:59N 51°58' E 004°04'0 0.0
2018-Aug-06 08:29N 51°58' E 004°04'0 0.0
2018-Aug-06 07:56N 51°58' E 004°04'0 0.0
2018-Aug-06 07:29N 51°58' E 004°04'0 0.0
2018-Aug-06 06:56N 51°58' E 004°04'0 0.0
2018-Aug-06 06:29N 51°58' E 004°04'0 0.0
2018-Aug-06 05:59N 51°58' E 004°04'0 0.0
2018-Aug-06 05:29N 51°58' E 004°04'0 0.0
2018-Aug-06 04:56N 51°58' E 004°04'0 0.0
2018-Aug-06 04:29N 51°58' E 004°04'0 0.0
2018-Aug-06 03:59N 51°58' E 004°04'0 0.0
2018-Aug-06 03:29N 51°58' E 004°04'0 0.0
2018-Aug-06 02:59N 51°58' E 004°04'0 0.0
2018-Aug-06 02:29N 51°58' E 004°04'0 0.0
2018-Aug-06 01:53N 51°58' E 004°04'0 0.0
2018-Aug-06 01:29N 51°58' E 004°04'0 0.0
2018-Aug-06 00:53N 51°58' E 004°04'0 0.0
2018-Aug-06 00:26N 51°58' E 004°04'0 0.0
2018-Aug-05 23:59N 51°58' E 004°04'0 0.0
2018-Aug-05 23:29N 51°58' E 004°04'0 0.0
2018-Aug-05 22:59N 51°58' E 004°04'0 0.0
2018-Aug-05 22:29N 51°58' E 004°04'0 0.0
2018-Aug-05 21:59N 51°58' E 004°04'0 0.0
2018-Aug-05 21:29N 51°58' E 004°04'0 0.0
2018-Aug-05 20:59N 51°58' E 004°04'0 0.0
2018-Aug-05 20:29N 51°58' E 004°04'0 0.0
2018-Aug-05 19:53N 51°58' E 004°04'0 0.0
2018-Aug-05 19:29N 51°58' E 004°04'0 0.0
2018-Aug-05 18:59N 51°58' E 004°04'0 0.0
2018-Aug-05 18:30N 51°58' E 004°04'0 0.6
2018-Aug-05 18:00N 51°58' E 004°05'2 3.1
2018-Aug-05 17:30N 51°58' E 004°07'2 4.7
2018-Aug-05 17:00N 51°57' E 004°10'2 3.7
2018-Aug-05 16:30N 51°55' E 004°12'0 0.1
2018-Aug-05 15:58N 51°55' E 004°12'0 0.0
2018-Aug-05 15:28N 51°55' E 004°12'0 0.0
2018-Aug-05 14:58N 51°55' E 004°12'0 0.0
2018-Aug-05 14:28N 51°55' E 004°12'0 0.0
2018-Aug-05 13:22N 51°55' E 004°12'0 0.0
2018-Aug-05 12:55N 51°55' E 004°12'0 0.0
2018-Aug-05 12:28N 51°55' E 004°12'0 0.0
2018-Aug-05 11:58N 51°55' E 004°12'0 0.0
2018-Aug-05 11:28N 51°55' E 004°12'0 0.0
2018-Aug-05 10:58N 51°55' E 004°12'0 0.0
2018-Aug-05 10:28N 51°55' E 004°12'0 0.0
2018-Aug-05 09:58N 51°55' E 004°12'0 0.0
2018-Aug-05 09:28N 51°55' E 004°12'0 0.0
2018-Aug-05 08:58N 51°55' E 004°12'0 0.0
2018-Aug-05 08:28N 51°55' E 004°12'0 0.0
2018-Aug-05 07:58N 51°55' E 004°12'0 0.0
2018-Aug-05 07:28N 51°55' E 004°12'0 0.0
2018-Aug-05 06:58N 51°55' E 004°12'0 0.0
2018-Aug-05 06:25N 51°55' E 004°12'0 0.0
2018-Aug-05 05:58N 51°55' E 004°12'0 0.0
2018-Aug-05 05:19N 51°55' E 004°12'0 0.0
2018-Aug-05 04:49N 51°55' E 004°12'0 0.0
2018-Aug-05 04:28N 51°55' E 004°12'0 0.0
2018-Aug-05 03:58N 51°55' E 004°12'0 0.0
2018-Aug-05 03:28N 51°55' E 004°12'0 0.0
2018-Aug-05 02:58N 51°55' E 004°12'0 0.0
2018-Aug-05 02:28N 51°55' E 004°12'0 0.0
2018-Aug-05 01:58N 51°55' E 004°12'0 0.1
2018-Aug-05 01:30N 51°55' E 004°12'1 2.7
2018-Aug-05 01:00N 51°56' E 004°11'3 6.7
2018-Aug-05 00:30N 51°58' E 004°06'4 8.8
2018-Aug-05 00:00N 52°00' E 003°60'5 9.3
2018-Aug-04 23:30N 52°02' E 003°53'4 8.5
2018-Aug-04 23:00N 52°01' E 003°46'3 5.2
2018-Aug-04 22:30N 52°03' E 003°42'3 6.3
2018-Aug-04 22:00N 52°05' E 003°38'5 9.1
2018-Aug-04 21:29N 52°07' E 003°32'511.0
2018-Aug-04 21:00N 52°08' E 003°23'611.1
2018-Aug-04 20:26N 52°10' E 003°14'511.4
2018-Aug-04 20:00N 52°14' E 003°08'611.3
2018-Aug-04 19:29N 52°19' E 003°03'611.5
2018-Aug-04 19:00N 52°24' E 002°59'610.7
2018-Aug-04 18:24N 52°30' E 002°56'511.2
2018-Aug-04 17:56N 52°34' E 002°59'1911.8
2018-Aug-04 16:21N 52°51' E 003°13'412.4
2018-Aug-04 16:00N 52°55' E 003°15'612.6
2018-Aug-04 15:30N 53°01' E 003°19'  

Dump ship's entire track history